sensor_id;sensor_type;location;lat;lon;timestamp;temperature;humidity
39847;DHT22;25517;52.422;10.782;2023-11-21T00:00:20;8.10;99.90
39847;DHT22;25517;52.422;10.782;2023-11-21T00:02:45;8.10;99.90
39847;DHT22;25517;52.422;10.782;2023-11-21T00:05:12;8.10;99.90
39847;DHT22;25517;52.422;10.782;2023-11-21T00:07:39;8.10;99.90
39847;DHT22;25517;52.422;10.782;2023-11-21T00:10:06;8.10;99.90
39847;DHT22;25517;52.422;10.782;2023-11-21T00:12:32;8.10;99.90
39847;DHT22;25517;52.422;10.782;2023-11-21T00:14:58;8.10;99.90
39847;DHT22;25517;52.422;10.782;2023-11-21T00:17:24;8.00;99.90
39847;DHT22;25517;52.422;10.782;2023-11-21T00:19:50;8.10;99.90
39847;DHT22;25517;52.422;10.782;2023-11-21T00:22:17;8.00;99.90
39847;DHT22;25517;52.422;10.782;2023-11-21T00:24:43;8.00;99.90
39847;DHT22;25517;52.422;10.782;2023-11-21T00:27:08;8.00;99.90
39847;DHT22;25517;52.422;10.782;2023-11-21T00:29:34;8.00;99.90
39847;DHT22;25517;52.422;10.782;2023-11-21T00:31:59;8.10;99.90
39847;DHT22;25517;52.422;10.782;2023-11-21T00:34:25;8.00;99.90
39847;DHT22;25517;52.422;10.782;2023-11-21T00:36:50;8.00;99.90
39847;DHT22;25517;52.422;10.782;2023-11-21T00:39:16;8.00;99.90
39847;DHT22;25517;52.422;10.782;2023-11-21T00:41:42;8.00;99.90
39847;DHT22;25517;52.422;10.782;2023-11-21T00:44:07;8.00;99.90
39847;DHT22;25517;52.422;10.782;2023-11-21T00:46:33;8.10;99.90
39847;DHT22;25517;52.422;10.782;2023-11-21T00:48:59;8.00;99.90
39847;DHT22;25517;52.422;10.782;2023-11-21T00:51:24;8.00;99.90
39847;DHT22;25517;52.422;10.782;2023-11-21T00:53:50;8.00;99.90
39847;DHT22;25517;52.422;10.782;2023-11-21T00:56:16;8.00;99.90
39847;DHT22;25517;52.422;10.782;2023-11-21T00:58:41;8.00;99.90
39847;DHT22;25517;52.422;10.782;2023-11-21T01:01:15;8.00;99.90
39847;DHT22;25517;52.422;10.782;2023-11-21T01:03:40;8.00;99.90
39847;DHT22;25517;52.422;10.782;2023-11-21T01:06:06;8.00;99.90
39847;DHT22;25517;52.422;10.782;2023-11-21T01:08:32;8.00;99.90
39847;DHT22;25517;52.422;10.782;2023-11-21T01:10:58;8.00;99.90
39847;DHT22;25517;52.422;10.782;2023-11-21T01:13:23;8.00;99.90
39847;DHT22;25517;52.422;10.782;2023-11-21T01:15:49;8.00;99.90
39847;DHT22;25517;52.422;10.782;2023-11-21T01:18:14;8.00;99.90
39847;DHT22;25517;52.422;10.782;2023-11-21T01:20:40;8.00;99.90
39847;DHT22;25517;52.422;10.782;2023-11-21T01:23:05;7.90;99.90
39847;DHT22;25517;52.422;10.782;2023-11-21T01:25:31;7.90;99.90
39847;DHT22;25517;52.422;10.782;2023-11-21T01:27:57;7.90;99.90
39847;DHT22;25517;52.422;10.782;2023-11-21T01:30:22;8.00;99.90
39847;DHT22;25517;52.422;10.782;2023-11-21T01:32:48;7.90;99.90
39847;DHT22;25517;52.422;10.782;2023-11-21T01:35:13;7.90;99.90
39847;DHT22;25517;52.422;10.782;2023-11-21T01:37:39;7.90;99.90
39847;DHT22;25517;52.422;10.782;2023-11-21T01:40:05;7.90;99.90
39847;DHT22;25517;52.422;10.782;2023-11-21T01:42:35;7.90;99.90
39847;DHT22;25517;52.422;10.782;2023-11-21T01:45:01;7.90;99.90
39847;DHT22;25517;52.422;10.782;2023-11-21T01:47:32;7.90;99.90
39847;DHT22;25517;52.422;10.782;2023-11-21T01:49:59;7.90;99.90
39847;DHT22;25517;52.422;10.782;2023-11-21T01:52:25;7.90;99.90
39847;DHT22;25517;52.422;10.782;2023-11-21T01:54:51;7.90;99.90
39847;DHT22;25517;52.422;10.782;2023-11-21T01:57:20;8.00;99.90
39847;DHT22;25517;52.422;10.782;2023-11-21T01:59:47;7.90;99.90
39847;DHT22;25517;52.422;10.782;2023-11-21T02:02:14;8.00;99.90
39847;DHT22;25517;52.422;10.782;2023-11-21T02:04:41;7.90;99.90
39847;DHT22;25517;52.422;10.782;2023-11-21T02:07:06;7.90;99.90
39847;DHT22;25517;52.422;10.782;2023-11-21T02:09:32;7.90;99.90
39847;DHT22;25517;52.422;10.782;2023-11-21T02:12:04;7.90;99.90
39847;DHT22;25517;52.422;10.782;2023-11-21T02:14:30;8.00;99.90
39847;DHT22;25517;52.422;10.782;2023-11-21T02:16:56;7.90;99.90
39847;DHT22;25517;52.422;10.782;2023-11-21T02:19:26;7.90;99.90
39847;DHT22;25517;52.422;10.782;2023-11-21T02:21:52;7.90;99.90
39847;DHT22;25517;52.422;10.782;2023-11-21T02:24:20;8.00;99.90
39847;DHT22;25517;52.422;10.782;2023-11-21T02:26:47;8.00;99.90
39847;DHT22;25517;52.422;10.782;2023-11-21T02:29:12;8.00;99.90
39847;DHT22;25517;52.422;10.782;2023-11-21T02:31:39;8.00;99.90
39847;DHT22;25517;52.422;10.782;2023-11-21T02:34:16;8.00;99.90
39847;DHT22;25517;52.422;10.782;2023-11-21T02:36:43;8.00;99.90
39847;DHT22;25517;52.422;10.782;2023-11-21T02:39:09;8.10;99.90
39847;DHT22;25517;52.422;10.782;2023-11-21T02:41:36;8.10;99.90
39847;DHT22;25517;52.422;10.782;2023-11-21T02:44:01;8.10;99.90
39847;DHT22;25517;52.422;10.782;2023-11-21T02:46:27;8.10;99.90
39847;DHT22;25517;52.422;10.782;2023-11-21T02:48:52;8.10;99.90
39847;DHT22;25517;52.422;10.782;2023-11-21T02:51:21;8.10;99.90
39847;DHT22;25517;52.422;10.782;2023-11-21T02:53:47;8.10;99.90
39847;DHT22;25517;52.422;10.782;2023-11-21T02:56:13;8.10;99.90
39847;DHT22;25517;52.422;10.782;2023-11-21T02:58:41;8.10;99.90
39847;DHT22;25517;52.422;10.782;2023-11-21T03:01:09;8.10;99.90
39847;DHT22;25517;52.422;10.782;2023-11-21T03:03:34;8.20;99.90
39847;DHT22;25517;52.422;10.782;2023-11-21T03:06:02;8.20;99.90
39847;DHT22;25517;52.422;10.782;2023-11-21T03:08:28;8.20;99.90
39847;DHT22;25517;52.422;10.782;2023-11-21T03:10:53;8.10;99.90
39847;DHT22;25517;52.422;10.782;2023-11-21T03:13:19;8.20;99.90
39847;DHT22;25517;52.422;10.782;2023-11-21T03:15:44;8.20;99.90
39847;DHT22;25517;52.422;10.782;2023-11-21T03:18:10;8.20;99.90
39847;DHT22;25517;52.422;10.782;2023-11-21T03:20:35;8.20;99.90
39847;DHT22;25517;52.422;10.782;2023-11-21T03:23:01;8.10;99.90
39847;DHT22;25517;52.422;10.782;2023-11-21T03:25:27;8.20;99.90
39847;DHT22;25517;52.422;10.782;2023-11-21T03:27:52;8.20;99.90
39847;DHT22;25517;52.422;10.782;2023-11-21T03:30:18;8.20;99.90
39847;DHT22;25517;52.422;10.782;2023-11-21T03:32:44;8.10;99.90
39847;DHT22;25517;52.422;10.782;2023-11-21T03:35:10;8.20;99.90
39847;DHT22;25517;52.422;10.782;2023-11-21T03:37:36;8.20;99.90
39847;DHT22;25517;52.422;10.782;2023-11-21T03:40:04;8.20;99.90
39847;DHT22;25517;52.422;10.782;2023-11-21T03:42:30;8.20;99.90
39847;DHT22;25517;52.422;10.782;2023-11-21T03:44:55;8.20;99.90
39847;DHT22;25517;52.422;10.782;2023-11-21T03:47:21;8.20;99.90
39847;DHT22;25517;52.422;10.782;2023-11-21T03:49:47;8.20;99.90
39847;DHT22;25517;52.422;10.782;2023-11-21T03:52:12;8.20;99.90
39847;DHT22;25517;52.422;10.782;2023-11-21T03:54:38;8.20;99.90
39847;DHT22;25517;52.422;10.782;2023-11-21T03:57:03;8.20;99.90
39847;DHT22;25517;52.422;10.782;2023-11-21T03:59:29;8.20;99.90
39847;DHT22;25517;52.422;10.782;2023-11-21T04:01:56;8.20;99.90
39847;DHT22;25517;52.422;10.782;2023-11-21T04:04:22;8.20;99.90
39847;DHT22;25517;52.422;10.782;2023-11-21T04:06:48;8.20;99.90
39847;DHT22;25517;52.422;10.782;2023-11-21T04:09:13;8.20;99.90
39847;DHT22;25517;52.422;10.782;2023-11-21T04:11:39;8.20;99.90
39847;DHT22;25517;52.422;10.782;2023-11-21T04:14:05;8.20;99.90
39847;DHT22;25517;52.422;10.782;2023-11-21T04:16:30;8.20;99.90
39847;DHT22;25517;52.422;10.782;2023-11-21T04:18:56;8.20;99.90
39847;DHT22;25517;52.422;10.782;2023-11-21T04:21:22;8.20;99.90
39847;DHT22;25517;52.422;10.782;2023-11-21T04:23:49;8.20;99.90
39847;DHT22;25517;52.422;10.782;2023-11-21T04:26:15;8.20;99.90
39847;DHT22;25517;52.422;10.782;2023-11-21T04:28:41;8.20;99.90
39847;DHT22;25517;52.422;10.782;2023-11-21T04:31:06;8.20;99.90
39847;DHT22;25517;52.422;10.782;2023-11-21T04:33:32;8.20;99.90
39847;DHT22;25517;52.422;10.782;2023-11-21T04:35:58;8.20;99.90
39847;DHT22;25517;52.422;10.782;2023-11-21T04:38:23;8.20;99.90
39847;DHT22;25517;52.422;10.782;2023-11-21T04:40:49;8.20;99.90
39847;DHT22;25517;52.422;10.782;2023-11-21T04:43:15;8.20;99.90
39847;DHT22;25517;52.422;10.782;2023-11-21T04:45:40;8.10;99.90
39847;DHT22;25517;52.422;10.782;2023-11-21T04:48:07;8.10;99.90
39847;DHT22;25517;52.422;10.782;2023-11-21T04:50:34;8.10;99.90
39847;DHT22;25517;52.422;10.782;2023-11-21T04:52:59;8.10;99.90
39847;DHT22;25517;52.422;10.782;2023-11-21T04:55:25;8.10;99.90
39847;DHT22;25517;52.422;10.782;2023-11-21T04:57:53;8.00;99.90
39847;DHT22;25517;52.422;10.782;2023-11-21T05:00:19;7.90;99.90
39847;DHT22;25517;52.422;10.782;2023-11-21T05:02:46;7.90;99.90
39847;DHT22;25517;52.422;10.782;2023-11-21T05:05:12;7.80;99.90
39847;DHT22;25517;52.422;10.782;2023-11-21T05:07:39;7.90;99.90
39847;DHT22;25517;52.422;10.782;2023-11-21T05:10:06;7.80;99.90
39847;DHT22;25517;52.422;10.782;2023-11-21T05:12:35;7.80;99.90
39847;DHT22;25517;52.422;10.782;2023-11-21T05:15:04;7.80;99.90
39847;DHT22;25517;52.422;10.782;2023-11-21T05:17:33;7.70;99.90
39847;DHT22;25517;52.422;10.782;2023-11-21T05:20:00;7.70;99.90
39847;DHT22;25517;52.422;10.782;2023-11-21T05:22:29;7.70;99.90
39847;DHT22;25517;52.422;10.782;2023-11-21T05:24:55;7.70;99.90
39847;DHT22;25517;52.422;10.782;2023-11-21T05:27:20;7.70;99.90
39847;DHT22;25517;52.422;10.782;2023-11-21T05:29:46;7.70;99.90
39847;DHT22;25517;52.422;10.782;2023-11-21T05:32:12;7.70;99.90
39847;DHT22;25517;52.422;10.782;2023-11-21T05:34:37;7.70;99.90
39847;DHT22;25517;52.422;10.782;2023-11-21T05:37:03;7.60;99.90
39847;DHT22;25517;52.422;10.782;2023-11-21T05:39:30;7.60;99.90
39847;DHT22;25517;52.422;10.782;2023-11-21T05:41:56;7.50;99.90
39847;DHT22;25517;52.422;10.782;2023-11-21T05:44:23;7.50;99.90
39847;DHT22;25517;52.422;10.782;2023-11-21T05:46:49;7.50;99.90
39847;DHT22;25517;52.422;10.782;2023-11-21T05:49:15;7.50;99.90
39847;DHT22;25517;52.422;10.782;2023-11-21T05:51:41;7.50;99.90
39847;DHT22;25517;52.422;10.782;2023-11-21T05:54:07;7.40;99.90
39847;DHT22;25517;52.422;10.782;2023-11-21T05:56:33;7.40;99.90
39847;DHT22;25517;52.422;10.782;2023-11-21T05:58:59;7.40;99.90
39847;DHT22;25517;52.422;10.782;2023-11-21T06:01:25;7.30;99.90
39847;DHT22;25517;52.422;10.782;2023-11-21T06:03:53;7.20;99.90
39847;DHT22;25517;52.422;10.782;2023-11-21T06:06:20;7.20;99.90
39847;DHT22;25517;52.422;10.782;2023-11-21T06:08:48;7.20;99.90
39847;DHT22;25517;52.422;10.782;2023-11-21T06:11:14;7.20;99.90
39847;DHT22;25517;52.422;10.782;2023-11-21T06:13:39;7.10;99.90
39847;DHT22;25517;52.422;10.782;2023-11-21T06:16:05;7.10;99.90
39847;DHT22;25517;52.422;10.782;2023-11-21T06:18:31;7.20;99.90
39847;DHT22;25517;52.422;10.782;2023-11-21T06:20:56;7.10;99.90
39847;DHT22;25517;52.422;10.782;2023-11-21T06:23:23;7.20;99.90
39847;DHT22;25517;52.422;10.782;2023-11-21T06:25:48;7.20;99.90
39847;DHT22;25517;52.422;10.782;2023-11-21T06:28:14;7.20;99.90
39847;DHT22;25517;52.422;10.782;2023-11-21T06:30:43;7.10;99.90
39847;DHT22;25517;52.422;10.782;2023-11-21T06:33:09;7.10;99.90
39847;DHT22;25517;52.422;10.782;2023-11-21T06:35:35;7.10;99.90
39847;DHT22;25517;52.422;10.782;2023-11-21T06:38:01;7.10;99.90
39847;DHT22;25517;52.422;10.782;2023-11-21T06:40:27;7.10;99.90
39847;DHT22;25517;52.422;10.782;2023-11-21T06:42:52;7.10;99.90
39847;DHT22;25517;52.422;10.782;2023-11-21T06:45:18;7.00;99.90
39847;DHT22;25517;52.422;10.782;2023-11-21T06:47:45;7.10;99.90
39847;DHT22;25517;52.422;10.782;2023-11-21T06:50:11;7.10;99.90
39847;DHT22;25517;52.422;10.782;2023-11-21T06:52:36;7.00;99.90
39847;DHT22;25517;52.422;10.782;2023-11-21T06:55:02;7.00;99.90
39847;DHT22;25517;52.422;10.782;2023-11-21T06:57:28;7.10;99.90
39847;DHT22;25517;52.422;10.782;2023-11-21T06:59:54;7.10;99.90
39847;DHT22;25517;52.422;10.782;2023-11-21T07:02:20;7.10;99.90
39847;DHT22;25517;52.422;10.782;2023-11-21T07:04:45;7.10;99.90
39847;DHT22;25517;52.422;10.782;2023-11-21T07:07:12;7.10;99.90
39847;DHT22;25517;52.422;10.782;2023-11-21T07:09:38;7.10;99.90
39847;DHT22;25517;52.422;10.782;2023-11-21T07:12:04;7.00;99.90
39847;DHT22;25517;52.422;10.782;2023-11-21T07:14:31;7.00;99.90
39847;DHT22;25517;52.422;10.782;2023-11-21T07:16:57;7.10;99.90
39847;DHT22;25517;52.422;10.782;2023-11-21T07:19:23;7.00;99.90
39847;DHT22;25517;52.422;10.782;2023-11-21T07:21:49;7.00;99.90
39847;DHT22;25517;52.422;10.782;2023-11-21T07:24:17;7.10;99.90
39847;DHT22;25517;52.422;10.782;2023-11-21T07:26:43;7.00;99.90
39847;DHT22;25517;52.422;10.782;2023-11-21T07:29:08;7.10;99.90
39847;DHT22;25517;52.422;10.782;2023-11-21T07:31:34;7.00;99.90
39847;DHT22;25517;52.422;10.782;2023-11-21T07:34:00;7.10;99.90
39847;DHT22;25517;52.422;10.782;2023-11-21T07:36:26;7.10;99.90
39847;DHT22;25517;52.422;10.782;2023-11-21T07:38:52;7.10;99.90
39847;DHT22;25517;52.422;10.782;2023-11-21T07:41:18;7.10;99.90
39847;DHT22;25517;52.422;10.782;2023-11-21T07:43:45;7.00;99.90
39847;DHT22;25517;52.422;10.782;2023-11-21T07:46:11;7.10;99.90
39847;DHT22;25517;52.422;10.782;2023-11-21T07:48:41;7.10;99.90
39847;DHT22;25517;52.422;10.782;2023-11-21T07:51:08;7.10;99.90
39847;DHT22;25517;52.422;10.782;2023-11-21T07:53:34;7.10;99.90
39847;DHT22;25517;52.422;10.782;2023-11-21T07:56:04;7.10;99.90
39847;DHT22;25517;52.422;10.782;2023-11-21T07:58:30;7.10;99.90
39847;DHT22;25517;52.422;10.782;2023-11-21T08:00:59;7.10;99.90
39847;DHT22;25517;52.422;10.782;2023-11-21T08:03:24;7.20;99.90
39847;DHT22;25517;52.422;10.782;2023-11-21T08:05:52;7.20;99.90
39847;DHT22;25517;52.422;10.782;2023-11-21T08:08:17;7.20;99.90
39847;DHT22;25517;52.422;10.782;2023-11-21T08:10:46;7.20;99.90
39847;DHT22;25517;52.422;10.782;2023-11-21T08:13:13;7.30;99.90
39847;DHT22;25517;52.422;10.782;2023-11-21T08:15:42;7.30;99.90
39847;DHT22;25517;52.422;10.782;2023-11-21T08:18:11;7.30;99.90
39847;DHT22;25517;52.422;10.782;2023-11-21T08:20:38;7.30;99.90
39847;DHT22;25517;52.422;10.782;2023-11-21T08:23:05;7.30;99.90
39847;DHT22;25517;52.422;10.782;2023-11-21T08:25:31;7.30;99.90
39847;DHT22;25517;52.422;10.782;2023-11-21T08:27:57;7.30;99.90
39847;DHT22;25517;52.422;10.782;2023-11-21T08:30:23;7.30;99.90
39847;DHT22;25517;52.422;10.782;2023-11-21T08:32:49;7.40;99.90
39847;DHT22;25517;52.422;10.782;2023-11-21T08:35:19;7.50;99.90
39847;DHT22;25517;52.422;10.782;2023-11-21T08:37:45;7.50;99.90
39847;DHT22;25517;52.422;10.782;2023-11-21T08:40:11;7.60;99.90
39847;DHT22;25517;52.422;10.782;2023-11-21T08:42:37;7.60;99.90
39847;DHT22;25517;52.422;10.782;2023-11-21T08:45:04;7.60;99.90
39847;DHT22;25517;52.422;10.782;2023-11-21T08:47:29;7.60;99.90
39847;DHT22;25517;52.422;10.782;2023-11-21T08:49:55;7.70;99.90
39847;DHT22;25517;52.422;10.782;2023-11-21T08:52:21;7.60;99.90
39847;DHT22;25517;52.422;10.782;2023-11-21T08:54:49;7.60;99.90
39847;DHT22;25517;52.422;10.782;2023-11-21T08:57:22;7.60;99.90
39847;DHT22;25517;52.422;10.782;2023-11-21T08:59:47;7.60;99.90
39847;DHT22;25517;52.422;10.782;2023-11-21T09:02:13;7.60;99.90
39847;DHT22;25517;52.422;10.782;2023-11-21T09:04:38;7.60;99.90
39847;DHT22;25517;52.422;10.782;2023-11-21T09:07:04;7.60;99.90
39847;DHT22;25517;52.422;10.782;2023-11-21T09:09:29;7.60;99.90
39847;DHT22;25517;52.422;10.782;2023-11-21T09:11:55;7.60;99.90
39847;DHT22;25517;52.422;10.782;2023-11-21T09:14:22;7.70;99.90
39847;DHT22;25517;52.422;10.782;2023-11-21T09:16:47;7.70;99.90
39847;DHT22;25517;52.422;10.782;2023-11-21T09:19:13;7.80;99.90
39847;DHT22;25517;52.422;10.782;2023-11-21T09:21:39;7.90;99.90
39847;DHT22;25517;52.422;10.782;2023-11-21T09:24:05;7.90;99.90
39847;DHT22;25517;52.422;10.782;2023-11-21T09:26:31;8.10;99.90
39847;DHT22;25517;52.422;10.782;2023-11-21T09:28:56;8.20;99.90
39847;DHT22;25517;52.422;10.782;2023-11-21T09:31:22;8.20;99.90
39847;DHT22;25517;52.422;10.782;2023-11-21T09:33:49;8.40;99.90
39847;DHT22;25517;52.422;10.782;2023-11-21T09:36:14;8.50;99.90
39847;DHT22;25517;52.422;10.782;2023-11-21T09:38:41;8.30;99.90
39847;DHT22;25517;52.422;10.782;2023-11-21T09:41:12;8.30;99.90
39847;DHT22;25517;52.422;10.782;2023-11-21T09:43:44;8.40;99.90
39847;DHT22;25517;52.422;10.782;2023-11-21T09:46:12;8.50;99.90
39847;DHT22;25517;52.422;10.782;2023-11-21T09:48:42;8.60;99.90
39847;DHT22;25517;52.422;10.782;2023-11-21T09:51:09;8.80;99.90
39847;DHT22;25517;52.422;10.782;2023-11-21T09:53:36;8.90;99.90
39847;DHT22;25517;52.422;10.782;2023-11-21T09:56:04;9.00;99.90
39847;DHT22;25517;52.422;10.782;2023-11-21T09:58:30;9.10;99.90
39847;DHT22;25517;52.422;10.782;2023-11-21T10:00:58;8.90;99.90
39847;DHT22;25517;52.422;10.782;2023-11-21T10:03:24;8.70;99.90
39847;DHT22;25517;52.422;10.782;2023-11-21T10:05:50;8.60;99.90
39847;DHT22;25517;52.422;10.782;2023-11-21T10:08:20;8.60;99.90
39847;DHT22;25517;52.422;10.782;2023-11-21T10:10:51;8.60;99.90
39847;DHT22;25517;52.422;10.782;2023-11-21T10:13:18;8.50;99.90
39847;DHT22;25517;52.422;10.782;2023-11-21T10:15:50;8.30;99.90
39847;DHT22;25517;52.422;10.782;2023-11-21T10:18:16;8.40;99.90
39847;DHT22;25517;52.422;10.782;2023-11-21T10:20:43;8.40;99.90
39847;DHT22;25517;52.422;10.782;2023-11-21T10:23:09;8.40;99.90
39847;DHT22;25517;52.422;10.782;2023-11-21T10:25:37;8.40;99.90
39847;DHT22;25517;52.422;10.782;2023-11-21T10:28:04;8.30;99.90
39847;DHT22;25517;52.422;10.782;2023-11-21T10:30:37;8.20;99.90
39847;DHT22;25517;52.422;10.782;2023-11-21T10:33:03;8.20;99.90
39847;DHT22;25517;52.422;10.782;2023-11-21T10:35:49;8.20;99.90
39847;DHT22;25517;52.422;10.782;2023-11-21T10:38:21;8.30;99.90
39847;DHT22;25517;52.422;10.782;2023-11-21T10:40:49;8.50;99.90
39847;DHT22;25517;52.422;10.782;2023-11-21T10:43:15;8.50;99.90
39847;DHT22;25517;52.422;10.782;2023-11-21T10:45:41;8.60;99.90
39847;DHT22;25517;52.422;10.782;2023-11-21T10:48:14;8.60;99.90
39847;DHT22;25517;52.422;10.782;2023-11-21T10:50:47;8.70;99.90
39847;DHT22;25517;52.422;10.782;2023-11-21T10:53:13;8.80;99.90
39847;DHT22;25517;52.422;10.782;2023-11-21T10:55:39;8.80;99.90
39847;DHT22;25517;52.422;10.782;2023-11-21T10:58:05;8.90;99.90
39847;DHT22;25517;52.422;10.782;2023-11-21T11:00:34;9.00;99.90
39847;DHT22;25517;52.422;10.782;2023-11-21T11:03:00;9.00;99.90
39847;DHT22;25517;52.422;10.782;2023-11-21T11:05:27;9.00;99.90
39847;DHT22;25517;52.422;10.782;2023-11-21T11:08:08;9.00;99.90
39847;DHT22;25517;52.422;10.782;2023-11-21T11:10:36;8.90;99.90
39847;DHT22;25517;52.422;10.782;2023-11-21T11:13:02;8.80;99.90
39847;DHT22;25517;52.422;10.782;2023-11-21T11:15:28;8.90;99.90
39847;DHT22;25517;52.422;10.782;2023-11-21T11:17:55;9.00;99.90
39847;DHT22;25517;52.422;10.782;2023-11-21T11:20:27;9.10;99.90
39847;DHT22;25517;52.422;10.782;2023-11-21T11:28:19;9.20;99.90
39847;DHT22;25517;52.422;10.782;2023-11-21T11:36:17;9.50;99.90
39847;DHT22;25517;52.422;10.782;2023-11-21T11:38:47;9.50;99.90
39847;DHT22;25517;52.422;10.782;2023-11-21T11:41:25;9.50;99.90
39847;DHT22;25517;52.422;10.782;2023-11-21T11:43:51;9.20;99.90
39847;DHT22;25517;52.422;10.782;2023-11-21T11:46:18;9.10;99.90
39847;DHT22;25517;52.422;10.782;2023-11-21T11:48:47;8.90;99.90
39847;DHT22;25517;52.422;10.782;2023-11-21T11:51:14;8.80;99.90
39847;DHT22;25517;52.422;10.782;2023-11-21T11:53:43;8.80;99.90
39847;DHT22;25517;52.422;10.782;2023-11-21T11:58:48;8.70;99.90
39847;DHT22;25517;52.422;10.782;2023-11-21T12:01:18;8.80;99.90
39847;DHT22;25517;52.422;10.782;2023-11-21T12:03:44;8.90;99.90
39847;DHT22;25517;52.422;10.782;2023-11-21T12:06:10;9.20;99.90
39847;DHT22;25517;52.422;10.782;2023-11-21T12:08:37;9.60;99.90
39847;DHT22;25517;52.422;10.782;2023-11-21T12:11:04;9.70;99.90
39847;DHT22;25517;52.422;10.782;2023-11-21T12:13:29;9.80;99.90
39847;DHT22;25517;52.422;10.782;2023-11-21T12:15:55;9.90;99.90
39847;DHT22;25517;52.422;10.782;2023-11-21T12:18:21;9.90;99.90
39847;DHT22;25517;52.422;10.782;2023-11-21T12:20:47;9.80;99.90
39847;DHT22;25517;52.422;10.782;2023-11-21T12:23:15;9.50;99.90
39847;DHT22;25517;52.422;10.782;2023-11-21T12:25:42;9.40;99.90
39847;DHT22;25517;52.422;10.782;2023-11-21T12:28:08;9.20;99.90
39847;DHT22;25517;52.422;10.782;2023-11-21T12:30:35;9.10;99.90
39847;DHT22;25517;52.422;10.782;2023-11-21T12:33:02;8.90;99.90
39847;DHT22;25517;52.422;10.782;2023-11-21T12:35:34;8.80;99.90
39847;DHT22;25517;52.422;10.782;2023-11-21T12:38:01;8.50;99.90
39847;DHT22;25517;52.422;10.782;2023-11-21T12:40:30;8.40;99.90
39847;DHT22;25517;52.422;10.782;2023-11-21T12:42:57;8.30;99.90
39847;DHT22;25517;52.422;10.782;2023-11-21T12:45:25;8.30;99.90
39847;DHT22;25517;52.422;10.782;2023-11-21T12:47:57;8.20;99.90
39847;DHT22;25517;52.422;10.782;2023-11-21T12:50:26;8.10;99.90
39847;DHT22;25517;52.422;10.782;2023-11-21T12:52:58;8.10;99.90
39847;DHT22;25517;52.422;10.782;2023-11-21T12:55:24;8.10;99.90
39847;DHT22;25517;52.422;10.782;2023-11-21T12:57:52;8.00;99.90
39847;DHT22;25517;52.422;10.782;2023-11-21T13:00:20;8.00;99.90
39847;DHT22;25517;52.422;10.782;2023-11-21T13:02:56;8.10;99.90
39847;DHT22;25517;52.422;10.782;2023-11-21T13:05:27;8.10;99.90
39847;DHT22;25517;52.422;10.782;2023-11-21T13:07:57;8.10;99.90
39847;DHT22;25517;52.422;10.782;2023-11-21T13:10:26;8.10;99.90
39847;DHT22;25517;52.422;10.782;2023-11-21T13:13:00;8.20;99.90
39847;DHT22;25517;52.422;10.782;2023-11-21T13:15:26;8.20;99.90
39847;DHT22;25517;52.422;10.782;2023-11-21T13:17:53;8.20;99.90
39847;DHT22;25517;52.422;10.782;2023-11-21T13:20:25;8.20;99.90
39847;DHT22;25517;52.422;10.782;2023-11-21T13:22:53;8.20;99.90
39847;DHT22;25517;52.422;10.782;2023-11-21T13:25:25;8.10;99.90
39847;DHT22;25517;52.422;10.782;2023-11-21T13:27:56;8.10;99.90
39847;DHT22;25517;52.422;10.782;2023-11-21T13:30:23;8.00;99.90
39847;DHT22;25517;52.422;10.782;2023-11-21T13:32:55;8.00;99.90
39847;DHT22;25517;52.422;10.782;2023-11-21T13:35:28;7.90;99.90
39847;DHT22;25517;52.422;10.782;2023-11-21T13:38:10;7.90;99.90
39847;DHT22;25517;52.422;10.782;2023-11-21T13:40:36;7.90;99.90
39847;DHT22;25517;52.422;10.782;2023-11-21T13:43:10;7.80;99.90
39847;DHT22;25517;52.422;10.782;2023-11-21T13:45:37;7.70;99.90
39847;DHT22;25517;52.422;10.782;2023-11-21T13:48:04;7.60;99.90
39847;DHT22;25517;52.422;10.782;2023-11-21T13:50:32;7.50;99.90
39847;DHT22;25517;52.422;10.782;2023-11-21T13:52:59;7.40;99.90
39847;DHT22;25517;52.422;10.782;2023-11-21T13:55:34;7.40;99.90
39847;DHT22;25517;52.422;10.782;2023-11-21T13:58:01;7.30;99.90
39847;DHT22;25517;52.422;10.782;2023-11-21T14:00:30;7.30;99.90
39847;DHT22;25517;52.422;10.782;2023-11-21T14:03:07;7.30;99.90
39847;DHT22;25517;52.422;10.782;2023-11-21T14:05:41;7.30;99.90
39847;DHT22;25517;52.422;10.782;2023-11-21T14:08:08;7.30;99.90
39847;DHT22;25517;52.422;10.782;2023-11-21T14:10:37;7.30;99.90
39847;DHT22;25517;52.422;10.782;2023-11-21T14:13:11;7.30;99.90
39847;DHT22;25517;52.422;10.782;2023-11-21T14:15:39;7.20;99.90
39847;DHT22;25517;52.422;10.782;2023-11-21T14:18:08;7.30;99.90
39847;DHT22;25517;52.422;10.782;2023-11-21T14:20:39;7.20;99.90
39847;DHT22;25517;52.422;10.782;2023-11-21T14:23:05;7.20;99.90
39847;DHT22;25517;52.422;10.782;2023-11-21T14:25:35;7.20;99.90
39847;DHT22;25517;52.422;10.782;2023-11-21T14:28:07;7.20;99.90
39847;DHT22;25517;52.422;10.782;2023-11-21T14:30:33;7.20;99.90
39847;DHT22;25517;52.422;10.782;2023-11-21T14:33:02;7.20;99.90
39847;DHT22;25517;52.422;10.782;2023-11-21T14:35:28;7.10;99.90
39847;DHT22;25517;52.422;10.782;2023-11-21T14:37:58;7.10;99.90
39847;DHT22;25517;52.422;10.782;2023-11-21T14:40:24;7.00;99.90
39847;DHT22;25517;52.422;10.782;2023-11-21T14:42:51;7.00;99.90
39847;DHT22;25517;52.422;10.782;2023-11-21T14:45:21;7.00;99.90
39847;DHT22;25517;52.422;10.782;2023-11-21T14:47:48;6.90;99.90
39847;DHT22;25517;52.422;10.782;2023-11-21T14:50:41;6.90;99.90
39847;DHT22;25517;52.422;10.782;2023-11-21T14:53:10;6.80;99.90
39847;DHT22;25517;52.422;10.782;2023-11-21T14:55:39;6.80;99.90
39847;DHT22;25517;52.422;10.782;2023-11-21T14:58:18;6.80;99.90
39847;DHT22;25517;52.422;10.782;2023-11-21T15:00:57;6.80;99.90
39847;DHT22;25517;52.422;10.782;2023-11-21T15:03:27;6.70;99.90
39847;DHT22;25517;52.422;10.782;2023-11-21T15:05:59;6.60;99.90
39847;DHT22;25517;52.422;10.782;2023-11-21T15:08:44;6.60;99.90
39847;DHT22;25517;52.422;10.782;2023-11-21T15:11:09;6.50;99.90
39847;DHT22;25517;52.422;10.782;2023-11-21T15:13:40;6.50;99.90
39847;DHT22;25517;52.422;10.782;2023-11-21T15:16:07;6.40;99.90
39847;DHT22;25517;52.422;10.782;2023-11-21T15:18:34;6.40;99.90
39847;DHT22;25517;52.422;10.782;2023-11-21T15:21:01;6.30;99.90
39847;DHT22;25517;52.422;10.782;2023-11-21T15:23:29;6.30;99.90
39847;DHT22;25517;52.422;10.782;2023-11-21T15:25:56;6.30;99.90
39847;DHT22;25517;52.422;10.782;2023-11-21T15:28:23;6.30;99.90
39847;DHT22;25517;52.422;10.782;2023-11-21T15:30:50;6.30;99.90
39847;DHT22;25517;52.422;10.782;2023-11-21T15:33:16;6.30;99.90
39847;DHT22;25517;52.422;10.782;2023-11-21T15:35:42;6.20;99.90
39847;DHT22;25517;52.422;10.782;2023-11-21T15:38:08;6.20;99.90
39847;DHT22;25517;52.422;10.782;2023-11-21T15:40:34;6.20;99.90
39847;DHT22;25517;52.422;10.782;2023-11-21T15:43:00;6.20;99.90